logo dgac
Miércoles 20 de Febrero del 2019
Buscar por aerodromo o helipuerto
Ingrese nombre de aeródromo, localidad o designador OACI:
TAF: TAF SCRD 201211Z 2012/2024 01004KT 2000 BR OVC003 TX19/2020Z TN15/2012Z TEMPO 2012/2015 0200 -DZ FG VV001 BECMG 2015/2017 32008KT 7000 SCT005 BKN010 BECMG 2018/2020 9999 FEW015
TAF del 20/02/2019 a las 12:11 UTC
Período de validez: desde el 20 a las 12:00 UTC hasta el 20 a las 24:00 UTC
Viento: dirección 010 grados, velocidad 4 nudos
Visibilidad: 2000 metros
Neblina
Nubes: Cubierto a 300 pies sobre el nivel del aeródromo
Temperatura máxima: 19ºC el 20 a las 20:00 UTC
Temperatura mínima: 15ºC el 20 a las 12:00 UTC
Se espera en forma temporal entre las 12:00 UTC del 20 y las 15:00 UTC del 20:
Visibilidad: 200 metros
Débil LLovizna
Niebla
Visib_vertical: Cielo oscurecido, : 100 pies de visibilidad vertical
Se espera un cambio entre las 15:00 UTC del 20 y las 17:00 UTC del 20, :
Viento: dirección 320 grados, velocidad 8 nudos
Visibilidad: 7000 metros
Nubes: Nubosidad parcial a 500 pies sobre el nivel del aeródromo
Nubes: Nublado a 1000 pies sobre el nivel del aeródromo
Se espera un cambio entre las 18:00 UTC del 20 y las 20:00 UTC del 20, :
Visibilidad: 10 km o más
Nubes: Escasa nubosidad a 1500 pies sobre el nivel del aeródromo